sensor_id;sensor_type;location;lat;lon;timestamp;pressure;altitude;pressure_sealevel;temperature;humidity
82555;BME280;72219;48.186;11.554;2023-12-14T00:01:11;94576.06;;;18.01;45.97
82555;BME280;72219;48.186;11.554;2023-12-14T00:03:38;94578.81;;;18.06;45.65
82555;BME280;72219;48.186;11.554;2023-12-14T00:06:09;94579.69;;;17.99;45.84
82555;BME280;72219;48.186;11.554;2023-12-14T00:08:35;94577.53;;;17.90;46.26
82555;BME280;72219;48.186;11.554;2023-12-14T00:11:07;94578.34;;;17.83;46.11
82555;BME280;72219;48.186;11.554;2023-12-14T00:13:33;94596.59;;;17.97;46.01
82555;BME280;72219;48.186;11.554;2023-12-14T00:15:59;94588.59;;;17.85;46.23
82555;BME280;72219;48.186;11.554;2023-12-14T00:18:25;94597.63;;;17.89;46.35
82555;BME280;72219;48.186;11.554;2023-12-14T00:20:50;94593.84;;;17.85;45.97
82555;BME280;72219;48.186;11.554;2023-12-14T00:23:15;94605.47;;;17.89;46.08
82555;BME280;72219;48.186;11.554;2023-12-14T00:25:42;94598.28;;;17.85;46.18
82555;BME280;72219;48.186;11.554;2023-12-14T00:28:08;94598.06;;;17.86;46.29
82555;BME280;72219;48.186;11.554;2023-12-14T00:30:33;94602.56;;;17.79;46.17
82555;BME280;72219;48.186;11.554;2023-12-14T00:32:58;94616.16;;;17.88;46.23
82555;BME280;72219;48.186;11.554;2023-12-14T00:35:25;94613.16;;;17.84;46.19
82555;BME280;72219;48.186;11.554;2023-12-14T00:37:52;94623.63;;;17.84;46.12
82555;BME280;72219;48.186;11.554;2023-12-14T00:40:17;94626.25;;;17.84;45.96
82555;BME280;72219;48.186;11.554;2023-12-14T00:42:45;94629.84;;;17.90;45.98
82555;BME280;72219;48.186;11.554;2023-12-14T00:45:11;94624.06;;;17.81;46.01
82555;BME280;72219;48.186;11.554;2023-12-14T00:47:36;94631.13;;;17.80;46.05
82555;BME280;72219;48.186;11.554;2023-12-14T00:50:02;94607.88;;;17.65;46.21
82555;BME280;72219;48.186;11.554;2023-12-14T00:52:27;94627.06;;;17.85;46.05
82555;BME280;72219;48.186;11.554;2023-12-14T00:54:53;94638.53;;;17.83;45.66
82555;BME280;72219;48.186;11.554;2023-12-14T00:57:18;94644.00;;;17.82;45.84
82555;BME280;72219;48.186;11.554;2023-12-14T00:59:43;94643.03;;;17.76;46.08
82555;BME280;72219;48.186;11.554;2023-12-14T01:02:09;94659.53;;;17.70;46.36
82555;BME280;72219;48.186;11.554;2023-12-14T01:04:34;94662.56;;;17.74;46.21
82555;BME280;72219;48.186;11.554;2023-12-14T01:07:04;94666.81;;;17.68;46.24
82555;BME280;72219;48.186;11.554;2023-12-14T01:09:30;94667.59;;;17.69;46.15
82555;BME280;72219;48.186;11.554;2023-12-14T01:11:56;94680.03;;;17.73;45.93
82555;BME280;72219;48.186;11.554;2023-12-14T01:14:21;94668.44;;;17.62;46.48
82555;BME280;72219;48.186;11.554;2023-12-14T01:16:46;94679.28;;;17.66;46.54
82555;BME280;72219;48.186;11.554;2023-12-14T01:19:12;94680.91;;;17.67;45.98
82555;BME280;72219;48.186;11.554;2023-12-14T01:21:37;94698.63;;;17.58;46.04
82555;BME280;72219;48.186;11.554;2023-12-14T01:24:03;94690.63;;;17.53;46.57
82555;BME280;72219;48.186;11.554;2023-12-14T01:26:28;94689.03;;;17.52;46.34
82555;BME280;72219;48.186;11.554;2023-12-14T01:28:54;94703.66;;;17.60;46.06
82555;BME280;72219;48.186;11.554;2023-12-14T01:31:19;94687.44;;;17.44;46.73
82555;BME280;72219;48.186;11.554;2023-12-14T01:33:48;94697.88;;;17.51;46.48
82555;BME280;72219;48.186;11.554;2023-12-14T01:36:21;94692.06;;;17.42;46.33
82555;BME280;72219;48.186;11.554;2023-12-14T01:38:47;94713.56;;;17.51;46.59
82555;BME280;72219;48.186;11.554;2023-12-14T01:41:13;94710.53;;;17.54;46.50
82555;BME280;72219;48.186;11.554;2023-12-14T01:43:39;94707.13;;;17.54;46.26
82555;BME280;72219;48.186;11.554;2023-12-14T01:46:04;94714.97;;;17.54;46.18
82555;BME280;72219;48.186;11.554;2023-12-14T01:48:30;94714.38;;;17.45;46.38
82555;BME280;72219;48.186;11.554;2023-12-14T01:50:55;94704.97;;;17.37;46.52
82555;BME280;72219;48.186;11.554;2023-12-14T01:53:21;94691.94;;;17.24;46.54
82555;BME280;72219;48.186;11.554;2023-12-14T01:55:49;94706.75;;;17.37;46.54
82555;BME280;72219;48.186;11.554;2023-12-14T01:58:14;94732.88;;;17.43;46.56
82555;BME280;72219;48.186;11.554;2023-12-14T02:00:46;94736.34;;;17.37;46.72
82555;BME280;72219;48.186;11.554;2023-12-14T02:03:14;94735.31;;;17.38;46.47
82555;BME280;72219;48.186;11.554;2023-12-14T02:05:40;94734.34;;;17.32;46.29
82555;BME280;72219;48.186;11.554;2023-12-14T02:08:05;94738.00;;;17.25;46.72
82555;BME280;72219;48.186;11.554;2023-12-14T02:10:32;94748.25;;;17.26;46.81
82555;BME280;72219;48.186;11.554;2023-12-14T02:12:57;94744.63;;;17.21;46.82
82555;BME280;72219;48.186;11.554;2023-12-14T02:15:23;94755.66;;;17.29;46.89
82555;BME280;72219;48.186;11.554;2023-12-14T02:17:48;94744.44;;;17.22;46.53
82555;BME280;72219;48.186;11.554;2023-12-14T02:20:14;94755.88;;;17.21;46.56
82555;BME280;72219;48.186;11.554;2023-12-14T02:22:52;94760.50;;;17.19;47.04
82555;BME280;72219;48.186;11.554;2023-12-14T02:25:19;94767.16;;;17.15;46.92
82555;BME280;72219;48.186;11.554;2023-12-14T02:27:45;94761.13;;;17.14;46.81
82555;BME280;72219;48.186;11.554;2023-12-14T02:30:12;94766.94;;;17.23;46.85
82555;BME280;72219;48.186;11.554;2023-12-14T02:32:38;94768.75;;;17.16;47.03
82555;BME280;72219;48.186;11.554;2023-12-14T02:35:04;94763.34;;;17.04;47.11
82555;BME280;72219;48.186;11.554;2023-12-14T02:37:30;94774.41;;;17.13;46.60
82555;BME280;72219;48.186;11.554;2023-12-14T02:39:55;94782.63;;;17.10;47.03
82555;BME280;72219;48.186;11.554;2023-12-14T02:42:21;94760.53;;;16.99;46.67
82555;BME280;72219;48.186;11.554;2023-12-14T02:44:46;94792.50;;;17.14;46.79
82555;BME280;72219;48.186;11.554;2023-12-14T02:47:12;94793.50;;;17.13;46.66
82555;BME280;72219;48.186;11.554;2023-12-14T02:49:37;94795.31;;;17.13;46.93
82555;BME280;72219;48.186;11.554;2023-12-14T02:52:03;94797.13;;;17.06;47.07
82555;BME280;72219;48.186;11.554;2023-12-14T02:54:28;94801.97;;;17.09;46.69
82555;BME280;72219;48.186;11.554;2023-12-14T02:56:54;94810.19;;;17.06;47.05
82555;BME280;72219;48.186;11.554;2023-12-14T02:59:19;94803.16;;;17.06;46.86
82555;BME280;72219;48.186;11.554;2023-12-14T03:01:44;94808.59;;;17.11;46.59
82555;BME280;72219;48.186;11.554;2023-12-14T03:04:11;94818.84;;;17.06;46.82
82555;BME280;72219;48.186;11.554;2023-12-14T03:06:36;94812.41;;;17.02;46.67
82555;BME280;72219;48.186;11.554;2023-12-14T03:09:01;94818.22;;;17.04;47.13
82555;BME280;72219;48.186;11.554;2023-12-14T03:11:27;94811.59;;;17.02;46.86
82555;BME280;72219;48.186;11.554;2023-12-14T03:13:52;94806.19;;;16.90;47.00
82555;BME280;72219;48.186;11.554;2023-12-14T03:16:19;94827.06;;;17.03;46.65
82555;BME280;72219;48.186;11.554;2023-12-14T03:18:45;94829.88;;;17.02;46.88
82555;BME280;72219;48.186;11.554;2023-12-14T03:21:12;94833.53;;;17.01;47.33
82555;BME280;72219;48.186;11.554;2023-12-14T03:23:37;94837.13;;;17.00;47.15
82555;BME280;72219;48.186;11.554;2023-12-14T03:26:04;94835.94;;;16.95;47.16
82555;BME280;72219;48.186;11.554;2023-12-14T03:28:29;94844.16;;;16.99;47.05
82555;BME280;72219;48.186;11.554;2023-12-14T03:30:55;94846.75;;;16.92;46.88
82555;BME280;72219;48.186;11.554;2023-12-14T03:33:23;94848.38;;;17.00;46.88
82555;BME280;72219;48.186;11.554;2023-12-14T03:35:48;94844.72;;;16.88;46.88
82555;BME280;72219;48.186;11.554;2023-12-14T03:38:13;94857.38;;;16.84;46.79
82555;BME280;72219;48.186;11.554;2023-12-14T03:40:39;94866.88;;;16.98;47.03
82555;BME280;72219;48.186;11.554;2023-12-14T03:43:04;94857.22;;;16.92;47.13
82555;BME280;72219;48.186;11.554;2023-12-14T03:45:31;94856.19;;;16.87;46.50
82555;BME280;72219;48.186;11.554;2023-12-14T03:47:57;94851.56;;;16.75;47.09
82555;BME280;72219;48.186;11.554;2023-12-14T03:50:23;94872.47;;;16.89;47.14
82555;BME280;72219;48.186;11.554;2023-12-14T03:52:49;94879.75;;;16.93;46.86
82555;BME280;72219;48.186;11.554;2023-12-14T03:55:15;94874.69;;;16.85;46.69
82555;BME280;72219;48.186;11.554;2023-12-14T03:57:41;94881.31;;;16.81;47.41
82555;BME280;72219;48.186;11.554;2023-12-14T04:00:09;94878.09;;;16.79;47.29
82555;BME280;72219;48.186;11.554;2023-12-14T04:02:35;94892.22;;;16.91;46.92
82555;BME280;72219;48.186;11.554;2023-12-14T04:05:02;94898.19;;;16.85;46.61
82555;BME280;72219;48.186;11.554;2023-12-14T04:07:27;94898.19;;;16.85;47.25
82555;BME280;72219;48.186;11.554;2023-12-14T04:09:53;94905.03;;;16.86;46.90
82555;BME280;72219;48.186;11.554;2023-12-14T04:12:18;94903.78;;;16.69;46.95
82555;BME280;72219;48.186;11.554;2023-12-14T04:14:45;94909.44;;;16.72;47.27
82555;BME280;72219;48.186;11.554;2023-12-14T04:17:12;94912.03;;;16.72;47.27
82555;BME280;72219;48.186;11.554;2023-12-14T04:19:40;94912.44;;;16.82;46.78
82555;BME280;72219;48.186;11.554;2023-12-14T04:22:06;94925.50;;;16.82;47.24
82555;BME280;72219;48.186;11.554;2023-12-14T04:24:31;94935.97;;;16.82;46.94
82555;BME280;72219;48.186;11.554;2023-12-14T04:26:57;94929.50;;;16.72;47.20
82555;BME280;72219;48.186;11.554;2023-12-14T04:29:22;94939.97;;;16.78;47.13
82555;BME280;72219;48.186;11.554;2023-12-14T04:31:48;94939.56;;;16.75;47.67
82555;BME280;72219;48.186;11.554;2023-12-14T04:34:13;94948.81;;;16.77;47.42
82555;BME280;72219;48.186;11.554;2023-12-14T04:36:42;94954.84;;;16.78;47.07
82555;BME280;72219;48.186;11.554;2023-12-14T04:39:08;94948.00;;;16.70;46.85
82555;BME280;72219;48.186;11.554;2023-12-14T04:41:34;94950.81;;;16.69;46.61
82555;BME280;72219;48.186;11.554;2023-12-14T04:44:00;94959.66;;;16.74;46.82
82555;BME280;72219;48.186;11.554;2023-12-14T04:46:26;94956.59;;;16.64;47.26
82555;BME280;72219;48.186;11.554;2023-12-14T04:48:51;94949.38;;;16.59;47.34
82555;BME280;72219;48.186;11.554;2023-12-14T04:51:16;94973.69;;;16.67;47.23
82555;BME280;72219;48.186;11.554;2023-12-14T04:53:42;94980.75;;;16.73;47.05
82555;BME280;72219;48.186;11.554;2023-12-14T04:56:11;94959.00;;;16.52;46.92
82555;BME280;72219;48.186;11.554;2023-12-14T04:58:38;94968.41;;;16.53;46.91
82555;BME280;72219;48.186;11.554;2023-12-14T05:01:07;94980.28;;;16.56;47.57
82555;BME280;72219;48.186;11.554;2023-12-14T05:03:34;94985.16;;;16.65;47.28
82555;BME280;72219;48.186;11.554;2023-12-14T05:06:00;94988.72;;;16.51;47.43
82555;BME280;72219;48.186;11.554;2023-12-14T05:08:26;95003.41;;;16.59;47.42
82555;BME280;72219;48.186;11.554;2023-12-14T05:10:51;95008.03;;;16.63;47.40
82555;BME280;72219;48.186;11.554;2023-12-14T05:13:17;95013.31;;;16.70;47.13
82555;BME280;72219;48.186;11.554;2023-12-14T05:15:42;95007.06;;;16.64;46.77
82555;BME280;72219;48.186;11.554;2023-12-14T05:18:08;95020.34;;;16.70;46.67
82555;BME280;72219;48.186;11.554;2023-12-14T05:20:36;95005.41;;;16.57;47.14
82555;BME280;72219;48.186;11.554;2023-12-14T05:23:24;95020.31;;;16.63;47.16
82555;BME280;72219;48.186;11.554;2023-12-14T05:29:37;94992.84;;;16.32;46.85
82555;BME280;72219;48.186;11.554;2023-12-14T05:32:03;95011.78;;;16.47;46.95
82555;BME280;72219;48.186;11.554;2023-12-14T05:34:28;95047.44;;;16.62;47.06
82555;BME280;72219;48.186;11.554;2023-12-14T05:36:54;95043.81;;;16.63;46.85
82555;BME280;72219;48.186;11.554;2023-12-14T05:39:19;95039.75;;;16.54;47.22
82555;BME280;72219;48.186;11.554;2023-12-14T05:41:45;95056.44;;;16.59;47.07
82555;BME280;72219;48.186;11.554;2023-12-14T05:44:10;95055.47;;;16.60;47.21
82555;BME280;72219;48.186;11.554;2023-12-14T05:46:35;95054.22;;;16.56;47.17
82555;BME280;72219;48.186;11.554;2023-12-14T05:49:07;95035.41;;;16.33;47.29
82555;BME280;72219;48.186;11.554;2023-12-14T05:51:35;95029.59;;;16.30;46.88
82555;BME280;72219;48.186;11.554;2023-12-14T05:54:03;95074.34;;;16.62;46.73
82555;BME280;72219;48.186;11.554;2023-12-14T05:56:28;95078.50;;;16.50;47.39
82555;BME280;72219;48.186;11.554;2023-12-14T05:58:54;95081.31;;;16.48;47.14
82555;BME280;72219;48.186;11.554;2023-12-14T06:01:23;95092.09;;;16.74;47.61
82555;BME280;72219;48.186;11.554;2023-12-14T06:03:48;95087.13;;;17.34;46.04
82555;BME280;72219;48.186;11.554;2023-12-14T06:06:15;95098.13;;;18.45;43.25
82555;BME280;72219;48.186;11.554;2023-12-14T06:08:41;95101.53;;;19.31;41.33
82555;BME280;72219;48.186;11.554;2023-12-14T06:11:07;95106.63;;;20.22;39.81
82555;BME280;72219;48.186;11.554;2023-12-14T06:13:34;95103.66;;;20.87;38.07
82555;BME280;72219;48.186;11.554;2023-12-14T06:15:59;95110.03;;;21.28;37.82
82555;BME280;72219;48.186;11.554;2023-12-14T06:18:34;95118.38;;;21.62;37.05
82555;BME280;72219;48.186;11.554;2023-12-14T06:20:59;95116.81;;;21.85;36.55
82555;BME280;72219;48.186;11.554;2023-12-14T06:23:26;95134.44;;;22.15;36.37
82555;BME280;72219;48.186;11.554;2023-12-14T06:25:52;95127.47;;;22.32;35.62
82555;BME280;72219;48.186;11.554;2023-12-14T06:28:17;95131.75;;;22.57;35.68
82555;BME280;72219;48.186;11.554;2023-12-14T06:30:43;95135.53;;;22.61;35.52
82555;BME280;72219;48.186;11.554;2023-12-14T06:33:09;95126.47;;;22.57;35.83
82555;BME280;72219;48.186;11.554;2023-12-14T06:35:35;95138.28;;;22.66;35.78
82555;BME280;72219;48.186;11.554;2023-12-14T06:38:00;95132.31;;;22.59;36.50
82555;BME280;72219;48.186;11.554;2023-12-14T06:40:26;95152.63;;;22.59;37.29
82555;BME280;72219;48.186;11.554;2023-12-14T06:42:51;95150.69;;;22.54;37.77
82555;BME280;72219;48.186;11.554;2023-12-14T06:45:17;95155.22;;;22.47;38.05
82555;BME280;72219;48.186;11.554;2023-12-14T06:47:42;95161.75;;;22.44;38.48
82555;BME280;72219;48.186;11.554;2023-12-14T06:50:09;95175.19;;;22.43;38.52
82555;BME280;72219;48.186;11.554;2023-12-14T06:52:34;95170.94;;;22.42;38.74
82555;BME280;72219;48.186;11.554;2023-12-14T06:55:00;95174.91;;;22.32;39.13
82555;BME280;72219;48.186;11.554;2023-12-14T06:57:25;95185.19;;;22.22;39.42
82555;BME280;72219;48.186;11.554;2023-12-14T06:59:51;95181.28;;;22.13;39.51
82555;BME280;72219;48.186;11.554;2023-12-14T07:02:17;95187.78;;;22.10;39.53
82555;BME280;72219;48.186;11.554;2023-12-14T07:04:43;95186.06;;;22.04;40.04
82555;BME280;72219;48.186;11.554;2023-12-14T07:07:09;95195.66;;;21.98;39.83
82555;BME280;72219;48.186;11.554;2023-12-14T07:09:35;95183.13;;;21.82;40.16
82555;BME280;72219;48.186;11.554;2023-12-14T07:12:04;95209.22;;;21.83;40.41
82555;BME280;72219;48.186;11.554;2023-12-14T07:14:29;95211.06;;;21.83;40.61
82555;BME280;72219;48.186;11.554;2023-12-14T07:16:56;95222.38;;;21.83;40.61
82555;BME280;72219;48.186;11.554;2023-12-14T07:19:21;95223.94;;;21.73;40.78
82555;BME280;72219;48.186;11.554;2023-12-14T07:21:47;95223.22;;;21.65;40.93
82555;BME280;72219;48.186;11.554;2023-12-14T07:24:12;95228.72;;;21.64;41.14
82555;BME280;72219;48.186;11.554;2023-12-14T07:26:37;95225.16;;;21.58;41.10
82555;BME280;72219;48.186;11.554;2023-12-14T07:29:03;95231.06;;;21.54;41.50
82555;BME280;72219;48.186;11.554;2023-12-14T07:31:28;95235.06;;;21.56;41.49
82555;BME280;72219;48.186;11.554;2023-12-14T07:33:55;95240.34;;;21.56;41.28
82555;BME280;72219;48.186;11.554;2023-12-14T07:36:20;95239.56;;;21.56;41.17
82555;BME280;72219;48.186;11.554;2023-12-14T07:38:47;95241.59;;;21.54;41.43
82555;BME280;72219;48.186;11.554;2023-12-14T07:41:13;95255.97;;;21.51;41.59
82555;BME280;72219;48.186;11.554;2023-12-14T07:43:38;95250.13;;;21.49;41.34
82555;BME280;72219;48.186;11.554;2023-12-14T07:46:05;95257.00;;;21.50;41.41
82555;BME280;72219;48.186;11.554;2023-12-14T07:48:30;95263.69;;;21.46;41.49
82555;BME280;72219;48.186;11.554;2023-12-14T07:50:56;95267.59;;;21.43;42.62
82555;BME280;72219;48.186;11.554;2023-12-14T07:53:21;95265.75;;;21.44;41.43
82555;BME280;72219;48.186;11.554;2023-12-14T07:55:46;95265.28;;;21.28;41.69
82555;BME280;72219;48.186;11.554;2023-12-14T07:58:12;95271.81;;;21.26;41.94
82555;BME280;72219;48.186;11.554;2023-12-14T08:00:39;95280.78;;;21.18;42.17
82555;BME280;72219;48.186;11.554;2023-12-14T08:03:05;95258.03;;;21.05;42.19
82555;BME280;72219;48.186;11.554;2023-12-14T08:05:30;95276.75;;;21.15;41.79
82555;BME280;72219;48.186;11.554;2023-12-14T08:07:57;95283.25;;;21.13;42.09
82555;BME280;72219;48.186;11.554;2023-12-14T08:10:22;95287.78;;;21.06;41.98
82555;BME280;72219;48.186;11.554;2023-12-14T08:12:48;95284.56;;;21.04;42.06
82555;BME280;72219;48.186;11.554;2023-12-14T08:15:13;95295.72;;;20.99;42.16
82555;BME280;72219;48.186;11.554;2023-12-14T08:17:39;95302.00;;;20.98;42.15
82555;BME280;72219;48.186;11.554;2023-12-14T08:20:06;95306.72;;;20.89;42.37
82555;BME280;72219;48.186;11.554;2023-12-14T08:22:34;95306.13;;;20.87;42.50
82555;BME280;72219;48.186;11.554;2023-12-14T08:25:02;95301.63;;;20.69;42.51
82555;BME280;72219;48.186;11.554;2023-12-14T08:27:29;95329.47;;;20.77;42.58
82555;BME280;72219;48.186;11.554;2023-12-14T08:29:55;95318.34;;;20.75;42.04
82555;BME280;72219;48.186;11.554;2023-12-14T08:32:21;95331.69;;;20.80;42.38
82555;BME280;72219;48.186;11.554;2023-12-14T08:34:46;95344.03;;;20.73;42.36
82555;BME280;72219;48.186;11.554;2023-12-14T08:37:13;95337.78;;;20.74;41.96
82555;BME280;72219;48.186;11.554;2023-12-14T08:39:39;95342.88;;;20.62;42.29
82555;BME280;72219;48.186;11.554;2023-12-14T08:42:05;95350.53;;;20.63;42.51
82555;BME280;72219;48.186;11.554;2023-12-14T08:44:30;95351.72;;;20.67;42.44
82555;BME280;72219;48.186;11.554;2023-12-14T08:46:56;95359.03;;;20.65;42.69
82555;BME280;72219;48.186;11.554;2023-12-14T08:49:21;95356.00;;;20.62;42.37
82555;BME280;72219;48.186;11.554;2023-12-14T08:51:48;95365.50;;;20.63;42.51
82555;BME280;72219;48.186;11.554;2023-12-14T08:54:14;95349.81;;;20.49;42.58
82555;BME280;72219;48.186;11.554;2023-12-14T08:56:39;95378.22;;;20.66;41.94
82555;BME280;72219;48.186;11.554;2023-12-14T08:59:06;95372.97;;;20.66;42.07
82555;BME280;72219;48.186;11.554;2023-12-14T09:01:32;95376.69;;;20.58;42.18
82555;BME280;72219;48.186;11.554;2023-12-14T09:03:58;95386.38;;;20.58;42.15
82555;BME280;72219;48.186;11.554;2023-12-14T09:06:23;95393.47;;;20.57;42.17
82555;BME280;72219;48.186;11.554;2023-12-14T09:08:48;95391.88;;;20.49;41.76
82555;BME280;72219;48.186;11.554;2023-12-14T09:11:16;95389.84;;;20.52;42.18
82555;BME280;72219;48.186;11.554;2023-12-14T09:14:02;95380.00;;;20.33;42.18
82555;BME280;72219;48.186;11.554;2023-12-14T09:16:58;95342.13;;;20.03;42.59
82555;BME280;72219;48.186;11.554;2023-12-14T09:19:30;95338.75;;;19.95;42.41
82555;BME280;72219;48.186;11.554;2023-12-14T09:21:56;95347.41;;;19.96;42.74
82555;BME280;72219;48.186;11.554;2023-12-14T09:24:21;95401.09;;;20.07;43.19
82555;BME280;72219;48.186;11.554;2023-12-14T09:26:46;95417.91;;;20.06;43.18
82555;BME280;72219;48.186;11.554;2023-12-14T09:29:12;95429.59;;;20.10;43.59
82555;BME280;72219;48.186;11.554;2023-12-14T09:31:41;95432.63;;;20.07;43.69
82555;BME280;72219;48.186;11.554;2023-12-14T09:34:07;95425.38;;;20.09;43.51
82555;BME280;72219;48.186;11.554;2023-12-14T09:36:50;95424.16;;;20.05;43.50
82555;BME280;72219;48.186;11.554;2023-12-14T09:39:18;95381.19;;;19.65;43.76
82555;BME280;72219;48.186;11.554;2023-12-14T09:41:46;95416.31;;;19.91;43.75
82555;BME280;72219;48.186;11.554;2023-12-14T09:44:13;95443.53;;;20.17;43.54
82555;BME280;72219;48.186;11.554;2023-12-14T09:46:40;95443.72;;;20.22;43.27
82555;BME280;72219;48.186;11.554;2023-12-14T09:49:12;95442.13;;;20.08;43.61
82555;BME280;72219;48.186;11.554;2023-12-14T09:51:37;95449.59;;;20.11;43.47
82555;BME280;72219;48.186;11.554;2023-12-14T09:54:07;95450.44;;;20.05;43.51
82555;BME280;72219;48.186;11.554;2023-12-14T09:56:33;95435.50;;;19.85;43.79
82555;BME280;72219;48.186;11.554;2023-12-14T09:58:58;95460.53;;;20.01;43.49
82555;BME280;72219;48.186;11.554;2023-12-14T10:01:27;95456.88;;;20.09;43.32
82555;BME280;72219;48.186;11.554;2023-12-14T10:04:10;95455.66;;;20.11;43.07
82555;BME280;72219;48.186;11.554;2023-12-14T10:06:37;95457.47;;;20.17;42.88
82555;BME280;72219;48.186;11.554;2023-12-14T10:09:02;95461.50;;;20.20;42.49
82555;BME280;72219;48.186;11.554;2023-12-14T10:11:29;95468.97;;;20.30;42.33
82555;BME280;72219;48.186;11.554;2023-12-14T10:13:54;95462.47;;;20.32;42.31
82555;BME280;72219;48.186;11.554;2023-12-14T10:16:30;95475.41;;;20.41;41.81
82555;BME280;72219;48.186;11.554;2023-12-14T10:18:59;95473.16;;;20.38;41.98
82555;BME280;72219;48.186;11.554;2023-12-14T10:21:26;95473.38;;;20.36;41.83
82555;BME280;72219;48.186;11.554;2023-12-14T10:24:01;95474.22;;;20.30;41.95
82555;BME280;72219;48.186;11.554;2023-12-14T10:26:27;95476.47;;;20.13;42.22
82555;BME280;72219;48.186;11.554;2023-12-14T10:28:53;95460.50;;;20.14;42.18
82555;BME280;72219;48.186;11.554;2023-12-14T10:31:19;95461.09;;;20.30;41.72
82555;BME280;72219;48.186;11.554;2023-12-14T10:33:47;95447.94;;;20.30;41.57
82555;BME280;72219;48.186;11.554;2023-12-14T10:39:06;95409.41;;;20.04;41.68
82555;BME280;72219;48.186;11.554;2023-12-14T10:41:46;95430.97;;;20.26;41.42
82555;BME280;72219;48.186;11.554;2023-12-14T10:44:18;95467.09;;;20.44;41.73
82555;BME280;72219;48.186;11.554;2023-12-14T10:46:58;95414.84;;;20.09;41.45
82555;BME280;72219;48.186;11.554;2023-12-14T10:49:30;95426.97;;;20.16;41.05
82555;BME280;72219;48.186;11.554;2023-12-14T10:52:04;95427.19;;;20.08;41.45
82555;BME280;72219;48.186;11.554;2023-12-14T10:54:34;95452.41;;;20.16;41.44
82555;BME280;72219;48.186;11.554;2023-12-14T10:57:02;95442.53;;;20.18;41.45
82555;BME280;72219;48.186;11.554;2023-12-14T10:59:42;95417.72;;;19.94;41.45
82555;BME280;72219;48.186;11.554;2023-12-14T11:02:22;95426.56;;;20.06;41.36
82555;BME280;72219;48.186;11.554;2023-12-14T11:05:21;95462.34;;;20.00;41.91
82555;BME280;72219;48.186;11.554;2023-12-14T11:08:22;95510.59;;;20.33;41.81
82555;BME280;72219;48.186;11.554;2023-12-14T11:13:54;95465.16;;;20.12;41.65
82555;BME280;72219;48.186;11.554;2023-12-14T11:16:30;95443.97;;;19.94;41.65
82555;BME280;72219;48.186;11.554;2023-12-14T11:19:31;95524.06;;;20.50;41.27
82555;BME280;72219;48.186;11.554;2023-12-14T11:23:01;95436.31;;;19.86;41.57
82555;BME280;72219;48.186;11.554;2023-12-14T11:25:37;95445.22;;;19.85;41.63
82555;BME280;72219;48.186;11.554;2023-12-14T11:28:06;95459.53;;;19.89;41.51
82555;BME280;72219;48.186;11.554;2023-12-14T11:31:31;95526.38;;;20.13;41.94
82555;BME280;72219;48.186;11.554;2023-12-14T11:34:11;95536.47;;;20.16;42.17
82555;BME280;72219;48.186;11.554;2023-12-14T11:36:54;95499.13;;;19.94;41.71
82555;BME280;72219;48.186;11.554;2023-12-14T11:39:36;95463.78;;;19.83;41.70
82555;BME280;72219;48.186;11.554;2023-12-14T11:42:23;95492.66;;;20.03;40.98
82555;BME280;72219;48.186;11.554;2023-12-14T11:45:08;95540.28;;;20.27;41.50
82555;BME280;72219;48.186;11.554;2023-12-14T11:47:39;95500.94;;;19.80;41.99
82555;BME280;72219;48.186;11.554;2023-12-14T11:50:05;95498.09;;;19.75;42.04
82555;BME280;72219;48.186;11.554;2023-12-14T11:52:33;95490.03;;;19.70;41.90
82555;BME280;72219;48.186;11.554;2023-12-14T11:54:59;95546.41;;;20.00;41.98
82555;BME280;72219;48.186;11.554;2023-12-14T11:57:28;95512.44;;;19.72;42.33
82555;BME280;72219;48.186;11.554;2023-12-14T11:59:54;95515.66;;;19.67;42.23
82555;BME280;72219;48.186;11.554;2023-12-14T12:02:26;95551.81;;;19.79;42.39
82555;BME280;72219;48.186;11.554;2023-12-14T12:04:55;95547.56;;;19.71;42.56
82555;BME280;72219;48.186;11.554;2023-12-14T12:07:20;95561.09;;;19.68;42.60
82555;BME280;72219;48.186;11.554;2023-12-14T12:09:58;95557.44;;;19.69;42.43
82555;BME280;72219;48.186;11.554;2023-12-14T12:12:27;95563.09;;;19.73;42.68
82555;BME280;72219;48.186;11.554;2023-12-14T12:15:01;95513.19;;;19.32;42.70
82555;BME280;72219;48.186;11.554;2023-12-14T12:17:35;95503.28;;;19.28;42.40
82555;BME280;72219;48.186;11.554;2023-12-14T12:20:09;95543.28;;;19.50;42.59
82555;BME280;72219;48.186;11.554;2023-12-14T12:23:06;95542.50;;;19.56;42.39
82555;BME280;72219;48.186;11.554;2023-12-14T12:25:46;95503.28;;;19.21;42.46
82555;BME280;72219;48.186;11.554;2023-12-14T12:28:20;95510.94;;;19.16;42.67
82555;BME280;72219;48.186;11.554;2023-12-14T12:33:56;95519.38;;;19.05;42.70
82555;BME280;72219;48.186;11.554;2023-12-14T12:36:39;95506.66;;;19.08;42.77
82555;BME280;72219;48.186;11.554;2023-12-14T12:39:27;95581.25;;;19.54;42.76
82555;BME280;72219;48.186;11.554;2023-12-14T12:41:56;95542.84;;;19.26;42.59
82555;BME280;72219;48.186;11.554;2023-12-14T12:44:22;95542.19;;;19.11;42.70
82555;BME280;72219;48.186;11.554;2023-12-14T12:46:57;95553.75;;;19.23;42.80
82555;BME280;72219;48.186;11.554;2023-12-14T12:49:24;95552.31;;;19.14;43.08
82555;BME280;72219;48.186;11.554;2023-12-14T12:51:49;95571.47;;;19.21;42.91
82555;BME280;72219;48.186;11.554;2023-12-14T12:54:15;95596.78;;;19.42;42.79
82555;BME280;72219;48.186;11.554;2023-12-14T12:57:00;95566.22;;;19.14;42.91
82555;BME280;72219;48.186;11.554;2023-12-14T12:59:26;95577.13;;;19.18;42.78
82555;BME280;72219;48.186;11.554;2023-12-14T13:01:51;95564.38;;;19.08;43.08
82555;BME280;72219;48.186;11.554;2023-12-14T13:04:21;95551.34;;;18.87;43.13
82555;BME280;72219;48.186;11.554;2023-12-14T13:07:10;95539.16;;;18.65;43.05
82555;BME280;72219;48.186;11.554;2023-12-14T13:19:56;95557.63;;;18.51;43.35